Time;durP1;ratioP1;P1;durP2;ratioP2;P2;SDS_P1;SDS_P2;PMS_P1;PMS_P2;Temp;Humidity;BMP_temperature;BMP_pressure;BME280_temperature;BME280_humidity;BME280_pressure;Samples;Min_cycle;Max_cycle;Signal;HPM_P1;HPM_P2
2023/08/13 00:01:19;;;;;;;6.30;4.73;;;;;;;21.59;100.00;98499.94;4131062;28;20619;-83
2023/08/13 00:03:22;;;;;;;5.90;5.30;;;;;;;21.57;100.00;98504.56;4168024;28;20632;-82
2023/08/13 00:05:25;;;;;;;6.53;5.87;;;;;;;21.58;100.00;98500.09;4153535;28;21061;-81
2023/08/13 00:07:28;;;;;;;5.73;4.87;;;;;;;21.56;100.00;98497.59;4140603;28;20738;-83
2023/08/13 00:09:32;;;;;;;5.80;5.20;;;;;;;21.55;100.00;98490.63;4158064;28;20986;-83
2023/08/13 00:11:35;;;;;;;5.87;5.27;;;;;;;21.53;100.00;98489.97;4157559;28;20763;-83
2023/08/13 00:13:40;;;;;;;5.50;5.00;;;;;;;21.53;100.00;98486.47;4116156;28;21180;-84
2023/08/13 00:15:42;;;;;;;5.17;4.67;;;;;;;21.50;100.00;98494.75;4149279;28;21175;-82
2023/08/13 00:17:45;;;;;;;6.20;4.87;;;;;;;21.50;100.00;98489.44;4150376;28;20629;-83
2023/08/13 00:19:48;;;;;;;5.30;4.80;;;;;;;21.48;100.00;98486.13;4139316;28;20637;-83
2023/08/13 00:21:52;;;;;;;5.53;5.03;;;;;;;21.46;100.00;98480.16;4158839;28;20716;-81
2023/08/13 00:24:15;;;;;;;5.80;4.67;;;;;;;21.45;100.00;98483.75;4125736;28;20619;-83
2023/08/13 00:26:18;;;;;;;5.00;4.60;;;;;;;21.42;100.00;98486.72;4142875;28;20628;-81
2023/08/13 00:28:21;;;;;;;4.73;4.33;;;;;;;21.39;100.00;98489.72;4152741;28;20643;-83
2023/08/13 00:30:25;;;;;;;5.60;5.00;;;;;;;21.37;100.00;98487.22;4139241;28;20625;-82
2023/08/13 00:32:28;;;;;;;4.87;4.13;;;;;;;21.37;100.00;98492.53;4140447;28;21068;-83
2023/08/13 00:34:32;;;;;;;6.03;4.53;;;;;;;21.36;100.00;98492.69;4153291;28;20661;-83
2023/08/13 00:36:35;;;;;;;7.70;4.57;;;;;;;21.34;100.00;98489.38;4127932;28;20740;-83
2023/08/13 00:38:39;;;;;;;10.70;4.40;;;;;;;21.32;100.00;98488.72;4158560;28;20620;-83
2023/08/13 00:40:42;;;;;;;4.87;4.37;;;;;;;21.31;100.00;98477.25;4129219;28;21178;-83
2023/08/13 00:42:45;;;;;;;4.60;4.20;;;;;;;21.28;100.00;98480.22;4138463;28;20730;-83
2023/08/13 00:44:48;;;;;;;6.33;4.37;;;;;;;21.28;100.00;98482.88;4152079;28;20644;-82
2023/08/13 00:46:54;;;;;;;5.23;4.73;;;;;;;21.28;100.00;98495.31;4140167;28;21034;-83
2023/08/13 00:48:58;;;;;;;4.40;4.00;;;;;;;21.27;100.00;98488.34;4140433;28;21185;-83
2023/08/13 00:51:01;;;;;;;4.37;3.97;;;;;;;21.27;100.00;98488.34;4129005;28;21212;-83
2023/08/13 00:53:05;;;;;;;4.47;4.07;;;;;;;21.27;100.00;98495.50;4145223;28;20674;-82
2023/08/13 00:55:09;;;;;;;6.70;4.60;;;;;;;21.27;100.00;98487.53;4138834;28;20666;-83
2023/08/13 00:57:12;;;;;;;6.83;4.63;;;;;;;21.25;100.00;98479.72;4138890;28;21072;-83
2023/08/13 00:59:14;;;;;;;7.40;4.37;;;;;;;21.26;100.00;98484.06;4153709;28;20954;-83
2023/08/13 01:01:18;;;;;;;6.40;4.60;;;;;;;21.25;100.00;98478.91;4152029;28;21054;-84
2023/08/13 01:03:22;;;;;;;6.63;4.23;;;;;;;21.24;100.00;98490.50;4141402;28;20637;-83
2023/08/13 01:05:37;;;;;;;7.10;4.63;;;;;;;21.22;100.00;98477.38;4158305;28;20679;-83
2023/08/13 01:07:47;;;;;;;5.47;4.03;;;;;;;21.22;100.00;98482.69;4154044;28;21044;-83
2023/08/13 01:10:02;;;;;;;4.10;3.70;;;;;;;21.20;100.00;98478.53;4135544;28;20688;-84
2023/08/13 01:12:09;;;;;;;5.30;3.90;;;;;;;21.17;100.00;98490.31;4152379;28;20705;-82
2023/08/13 01:14:15;;;;;;;5.00;4.03;;;;;;;21.16;100.00;98479.88;4135134;28;20642;-84
2023/08/13 01:16:20;;;;;;;4.70;4.20;;;;;;;21.15;100.00;98481.66;4138778;28;20674;-83
2023/08/13 01:18:25;;;;;;;4.00;3.60;;;;;;;21.15;100.00;98480.84;4156711;28;20690;-83
2023/08/13 01:20:29;;;;;;;4.50;4.10;;;;;;;21.13;100.00;98482.84;4142137;28;20822;-83
2023/08/13 01:22:36;;;;;;;5.87;3.93;;;;;;;21.14;100.00;98497.75;4136028;28;20640;-83
2023/08/13 01:24:40;;;;;;;7.87;3.90;;;;;;;21.12;100.00;98497.09;4151486;28;20688;-84
2023/08/13 01:26:50;;;;;;;3.90;3.20;;;;;;;21.10;100.00;98491.13;4139758;28;21040;-83
2023/08/13 01:28:59;;;;;;;9.60;3.93;;;;;;;21.08;100.00;98496.59;4136967;28;20653;-82
2023/08/13 01:31:06;;;;;;;6.60;4.07;;;;;;;21.08;100.00;98496.59;4137452;28;20753;-83
2023/08/13 01:33:11;;;;;;;6.07;4.30;;;;;;;21.10;100.00;98496.44;4136958;28;20635;-83
2023/08/13 01:35:15;;;;;;;8.70;4.53;;;;;;;21.09;100.00;98497.41;4140106;28;20657;-81
2023/08/13 01:37:19;;;;;;;4.53;3.77;;;;;;;21.09;100.00;98492.09;4140983;28;20632;-83
2023/08/13 01:39:24;;;;;;;7.53;3.83;;;;;;;21.08;100.00;98496.59;4143691;28;20623;-82
2023/08/13 01:41:34;;;;;;;5.27;3.77;;;;;;;21.07;100.00;98497.56;4137775;28;20632;-83
2023/08/13 01:43:37;;;;;;;5.20;3.60;;;;;;;21.06;100.00;98495.88;4152758;28;21061;-83
2023/08/13 01:45:41;;;;;;;4.30;3.40;;;;;;;21.05;100.00;98498.69;4152843;28;20629;-83
2023/08/13 01:47:43;;;;;;;4.47;4.07;;;;;;;21.05;100.00;98501.34;4121919;28;20629;-83
2023/08/13 01:49:46;;;;;;;4.63;4.13;;;;;;;21.05;100.00;98496.03;4150768;28;20628;-84
2023/08/13 01:51:49;;;;;;;4.50;4.10;;;;;;;21.04;100.00;98489.09;4127728;28;21016;-83
2023/08/13 01:53:53;;;;;;;12.03;4.47;;;;;;;21.03;100.00;98487.44;4142510;28;20615;-82
2023/08/13 01:55:58;;;;;;;7.10;4.70;;;;;;;21.01;100.00;98482.28;4153358;28;20762;-82
2023/08/13 01:58:01;;;;;;;6.03;4.23;;;;;;;21.00;100.00;98487.75;4144841;28;20630;-81
2023/08/13 02:00:07;;;;;;;5.97;4.37;;;;;;;20.98;100.00;98484.44;4124283;28;20660;-74
2023/08/13 02:02:09;;;;;;;4.67;4.27;;;;;;;20.97;100.00;98490.72;4143342;28;21033;-75
2023/08/13 02:04:12;;;;;;;8.60;4.50;;;;;;;20.94;100.00;98483.06;4153299;28;20655;-74
2023/08/13 02:06:15;;;;;;;5.10;4.60;;;;;;;20.93;100.00;98484.09;4149450;28;20640;-76
2023/08/13 02:08:18;;;;;;;5.23;4.47;;;;;;;20.93;100.00;98492.88;4142087;28;20730;-75
2023/08/13 02:10:21;;;;;;;5.57;4.60;;;;;;;20.93;100.00;98497.34;4153561;28;20641;-75
2023/08/13 02:12:26;;;;;;;4.97;4.47;;;;;;;20.93;100.00;98490.22;4132745;28;20644;-74
2023/08/13 02:14:28;;;;;;;7.70;4.60;;;;;;;20.92;100.00;98493.84;4135738;28;20623;-75
2023/08/13 02:16:31;;;;;;;5.37;4.40;;;;;;;20.92;100.00;98482.41;4152068;28;20699;-75
2023/08/13 02:18:35;;;;;;;5.00;4.40;;;;;;;20.92;100.00;98490.38;4126658;28;20623;-75
2023/08/13 02:20:38;;;;;;;7.17;4.60;;;;;;;20.93;100.00;98492.03;4141379;28;20625;-75
2023/08/13 02:22:41;;;;;;;4.77;4.20;;;;;;;20.94;100.00;98494.53;4146864;28;20750;-74
2023/08/13 02:24:46;;;;;;;10.00;4.37;;;;;;;20.94;100.00;98493.69;4144187;28;20625;-75
2023/08/13 02:26:49;;;;;;;5.50;3.80;;;;;;;20.92;100.00;98501.81;4152659;28;20635;-75
2023/08/13 02:28:53;;;;;;;6.53;5.63;;;;;;;20.92;100.00;98506.28;4141447;28;20616;-75
2023/08/13 02:30:56;;;;;;;5.07;4.53;;;;;;;20.93;100.00;98507.97;4151490;28;20615;-76
2023/08/13 02:32:59;;;;;;;5.23;4.73;;;;;;;20.95;100.00;98512.09;4131363;28;20632;-74
2023/08/13 02:35:03;;;;;;;6.40;5.20;;;;;;;20.98;100.00;98517.09;4129363;28;20714;-75
2023/08/13 02:37:06;;;;;;;5.73;5.10;;;;;;;21.00;100.00;98508.97;4148760;28;20686;-75
2023/08/13 02:39:09;;;;;;;7.73;6.33;;;;;;;21.00;100.00;98499.22;4144495;28;20640;-75
2023/08/13 02:41:12;;;;;;;5.70;4.47;;;;;;;21.01;100.00;98492.06;4154668;28;20622;-75
2023/08/13 02:43:15;;;;;;;6.60;5.40;;;;;;;21.02;100.00;98501.69;4142033;28;21226;-75
2023/08/13 02:45:20;;;;;;;9.17;5.73;;;;;;;21.04;100.00;98494.41;4144440;28;20651;-75
2023/08/13 02:47:23;;;;;;;6.67;5.70;;;;;;;21.05;100.00;98498.69;4135972;28;20640;-76
2023/08/13 02:49:26;;;;;;;6.30;5.57;;;;;;;21.05;100.00;98496.03;4137913;28;20635;-75
2023/08/13 02:51:29;;;;;;;5.50;4.70;;;;;;;21.06;100.00;98500.38;4137849;28;20960;-75
2023/08/13 02:53:33;;;;;;;5.90;5.20;;;;;;;21.07;100.00;98489.59;4122230;28;20637;-76
2023/08/13 02:55:36;;;;;;;6.30;5.23;;;;;;;21.06;100.00;98492.41;4144443;28;20659;-74
2023/08/13 02:57:39;;;;;;;6.10;4.77;;;;;;;21.06;100.00;98477.31;4145163;28;20633;-75
2023/08/13 02:59:58;;;;;;;7.00;5.70;;;;;;;21.05;100.00;98478.31;4158642;28;21067;-75
2023/08/13 03:02:03;;;;;;;5.43;4.70;;;;;;;21.04;100.00;98476.66;4146899;28;20687;-75
2023/08/13 03:04:06;;;;;;;7.67;4.13;;;;;;;21.02;100.00;98478.66;4135982;28;20680;-74
2023/08/13 03:06:09;;;;;;;4.93;4.30;;;;;;;21.00;100.00;98482.44;4137582;28;20653;-74
2023/08/13 03:08:13;;;;;;;5.30;4.80;;;;;;;20.96;100.00;98481.13;4146924;28;20626;-74
2023/08/13 03:10:17;;;;;;;5.90;5.30;;;;;;;20.95;100.00;98479.44;4142984;28;20874;-83
2023/08/13 03:12:20;;;;;;;5.70;4.80;;;;;;;20.95;100.00;98477.63;4130997;28;20636;-83
2023/08/13 03:14:23;;;;;;;6.10;5.13;;;;;;;20.95;100.00;98474.97;4129004;28;20672;-84
2023/08/13 03:16:26;;;;;;;6.77;5.10;;;;;;;20.94;100.00;98473.31;4127602;28;20656;-83
2023/08/13 03:18:31;;;;;;;10.00;5.90;;;;;;;20.96;100.00;98475.81;4138617;28;21219;-81
2023/08/13 03:20:37;;;;;;;10.07;6.13;;;;;;;20.95;100.00;98479.44;4122491;28;21297;-83
2023/08/13 03:22:40;;;;;;;8.80;5.37;;;;;;;20.96;100.00;98473.16;4130876;28;20632;-82
2023/08/13 03:24:44;;;;;;;8.30;5.17;;;;;;;20.99;100.00;98472.84;4119321;28;20635;-83
2023/08/13 03:26:47;;;;;;;7.20;5.13;;;;;;;20.99;100.00;98480.81;4162229;28;21002;-83
2023/08/13 03:28:50;;;;;;;6.60;5.30;;;;;;;20.99;100.00;98470.19;4145879;28;20685;-83
2023/08/13 03:30:59;;;;;;;7.20;5.73;;;;;;;21.01;100.00;98476.16;4143639;28;20615;-83
2023/08/13 03:33:08;;;;;;;9.30;5.90;;;;;;;21.00;100.00;98477.13;4127343;28;20616;-82
2023/08/13 03:35:13;;;;;;;11.17;6.00;;;;;;;21.00;100.00;98483.28;4141511;28;20635;-82
2023/08/13 03:37:16;;;;;;;6.80;5.70;;;;;;;21.00;100.00;98483.28;4152164;28;21087;-82
2023/08/13 03:39:19;;;;;;;7.03;6.00;;;;;;;21.02;100.00;98485.78;4146065;28;20627;-83
2023/08/13 03:41:22;;;;;;;6.80;5.83;;;;;;;21.02;100.00;98480.47;4150614;28;20778;-83
2023/08/13 03:43:25;;;;;;;7.20;6.03;;;;;;;21.01;100.00;98484.13;4154610;28;21184;-83
2023/08/13 03:45:30;;;;;;;9.33;6.10;;;;;;;21.00;100.00;98483.28;4147085;28;20640;-83
2023/08/13 03:47:33;;;;;;;7.40;5.90;;;;;;;21.02;100.00;98491.09;4147959;28;20632;-82
2023/08/13 03:49:36;;;;;;;7.63;6.77;;;;;;;21.02;100.00;98505.19;4142638;28;21015;-83
2023/08/13 03:51:40;;;;;;;6.50;5.60;;;;;;;21.03;100.00;98495.38;4127464;28;20634;-83
2023/08/13 03:53:44;;;;;;;9.53;6.50;;;;;;;21.03;100.00;98492.72;4133798;28;20637;-83
2023/08/13 03:55:47;;;;;;;7.50;5.97;;;;;;;20.96;100.00;98476.63;4150980;28;20713;-82
2023/08/13 03:57:52;;;;;;;7.20;5.70;;;;;;;20.92;100.00;98483.22;4149912;28;20660;-83
2023/08/13 03:59:55;;;;;;;8.60;6.07;;;;;;;20.93;100.00;98476.94;4143616;28;20628;-84
2023/08/13 04:01:59;;;;;;;6.90;5.80;;;;;;;20.94;100.00;98489.22;4149535;28;20627;-83
2023/08/13 04:04:03;;;;;;;6.80;5.70;;;;;;;20.95;100.00;98484.75;4137704;28;20663;-84
2023/08/13 04:06:05;;;;;;;7.97;6.30;;;;;;;20.96;100.00;98481.13;4155673;28;20995;-84
2023/08/13 04:08:10;;;;;;;8.50;6.93;;;;;;;20.98;100.00;98476.47;4137291;28;20687;-83
2023/08/13 04:10:12;;;;;;;6.60;5.70;;;;;;;20.99;100.00;98486.09;4143997;28;20737;-83
2023/08/13 04:12:15;;;;;;;6.90;5.30;;;;;;;20.99;100.00;98486.09;4146368;28;21078;-83
2023/08/13 04:14:18;;;;;;;5.87;5.27;;;;;;;20.99;100.00;98491.41;4127133;28;20634;-83
2023/08/13 04:16:22;;;;;;;6.20;5.60;;;;;;;20.99;100.00;98494.06;4134626;28;21071;-83
2023/08/13 04:18:25;;;;;;;7.30;5.73;;;;;;;21.00;100.00;98499.22;4145817;28;20667;-82
2023/08/13 04:20:30;;;;;;;7.00;5.87;;;;;;;21.01;100.00;98489.41;4124081;28;20652;-82
2023/08/13 04:22:33;;;;;;;8.30;5.90;;;;;;;21.02;100.00;98491.09;4144165;28;20674;-82
2023/08/13 04:24:38;;;;;;;6.53;5.57;;;;;;;21.01;100.00;98482.28;4149093;28;20631;-84
2023/08/13 04:26:41;;;;;;;6.50;5.50;;;;;;;21.02;100.00;98478.66;4139638;28;20620;-84
2023/08/13 04:28:45;;;;;;;6.60;5.37;;;;;;;21.02;100.00;98483.13;4143427;28;20650;-84
2023/08/13 04:30:48;;;;;;;6.30;5.40;;;;;;;21.02;100.00;98485.78;4128546;28;20721;-83
2023/08/13 04:32:55;;;;;;;6.80;5.73;;;;;;;21.03;100.00;98487.44;4135717;28;21187;-84
2023/08/13 04:35:02;;;;;;;6.17;5.40;;;;;;;21.03;100.00;98477.66;4137913;28;20631;-83
2023/08/13 04:37:05;;;;;;;7.07;6.10;;;;;;;21.03;100.00;98476.81;4129089;28;21075;-83
2023/08/13 04:39:09;;;;;;;6.00;5.30;;;;;;;21.03;100.00;98476.81;4141703;28;20658;-82
2023/08/13 04:41:14;;;;;;;6.60;5.90;;;;;;;21.04;100.00;98481.16;4139288;28;20634;-83
2023/08/13 04:43:20;;;;;;;6.27;5.60;;;;;;;21.04;100.00;98468.69;4145991;28;21194;-82
2023/08/13 04:45:24;;;;;;;6.97;5.73;;;;;;;21.02;100.00;98464.56;4156059;28;20630;-83
2023/08/13 04:47:27;;;;;;;6.20;5.60;;;;;;;21.02;100.00;98476.00;4129387;28;20803;-83
2023/08/13 04:49:30;;;;;;;8.00;5.60;;;;;;;21.05;100.00;98466.88;4119863;28;20668;-82
2023/08/13 04:51:33;;;;;;;6.17;5.27;;;;;;;21.06;100.00;98472.00;4136659;28;20700;-83
2023/08/13 04:53:37;;;;;;;7.97;5.80;;;;;;;21.06;100.00;98471.19;4139776;28;21139;-83
2023/08/13 04:55:40;;;;;;;5.13;4.63;;;;;;;21.08;100.00;98462.09;4135986;28;21085;-84
2023/08/13 04:57:45;;;;;;;9.13;5.13;;;;;;;21.10;100.00;98454.78;4141561;28;20679;-83
2023/08/13 04:59:48;;;;;;;4.97;4.43;;;;;;;21.13;100.00;98466.91;4139031;28;20686;-83
2023/08/13 05:01:52;;;;;;;5.13;4.63;;;;;;;21.14;100.00;98469.41;4141683;28;20636;-83
2023/08/13 05:03:55;;;;;;;5.87;5.27;;;;;;;21.17;100.00;98466.44;4139192;28;20657;-81
2023/08/13 05:05:58;;;;;;;9.33;4.50;;;;;;;21.19;100.00;98474.25;4125509;28;21681;-83
2023/08/13 05:08:02;;;;;;;6.40;5.73;;;;;;;21.20;100.00;98476.72;4137093;28;20629;-82
2023/08/13 05:10:08;;;;;;;6.47;5.63;;;;;;;21.21;100.00;98469.59;4137164;28;20715;-83
2023/08/13 05:12:11;;;;;;;5.83;5.07;;;;;;;21.21;100.00;98481.03;4121952;28;20731;-84
2023/08/13 05:14:18;;;;;;;6.43;5.57;;;;;;;21.22;100.00;98487.19;4131618;28;20633;-83
2023/08/13 05:16:21;;;;;;;7.10;5.90;;;;;;;21.23;100.00;98484.38;4158171;28;20690;-84
2023/08/13 05:18:27;;;;;;;6.83;6.13;;;;;;;21.26;100.00;98488.50;4141986;28;20759;-84
2023/08/13 05:20:30;;;;;;;6.50;5.87;;;;;;;21.26;100.00;98489.34;4141938;28;20653;-83
2023/08/13 05:22:33;;;;;;;6.90;6.20;;;;;;;21.26;100.00;98492.00;4137935;28;20631;-84
2023/08/13 05:24:37;;;;;;;5.60;5.00;;;;;;;21.26;100.00;98497.31;4136958;28;20728;-81
2023/08/13 05:26:40;;;;;;;6.50;5.10;;;;;;;21.27;100.00;98497.16;4154589;28;20653;-82
2023/08/13 05:28:43;;;;;;;6.27;5.27;;;;;;;21.27;100.00;98494.50;4124480;28;20665;-83
2023/08/13 05:30:48;;;;;;;5.33;4.83;;;;;;;21.28;100.00;98501.44;4138707;28;20684;-75
2023/08/13 05:32:53;;;;;;;6.40;5.70;;;;;;;21.30;100.00;98501.28;4141723;28;20654;-74
2023/08/13 05:34:58;;;;;;;7.37;5.33;;;;;;;21.29;100.00;98499.66;4122163;28;20729;-74
2023/08/13 05:37:01;;;;;;;6.73;5.40;;;;;;;21.27;100.00;98498.13;4131792;28;20689;-75
2023/08/13 05:39:07;;;;;;;7.90;5.33;;;;;;;21.26;100.00;98496.47;4153149;28;21079;-75
2023/08/13 05:41:10;;;;;;;6.50;5.70;;;;;;;21.23;100.00;98497.63;4136808;28;21506;-74
2023/08/13 05:43:13;;;;;;;5.97;5.37;;;;;;;21.21;100.00;98486.34;4144349;28;21278;-74
2023/08/13 05:45:18;;;;;;;6.40;5.73;;;;;;;21.24;100.00;98501.13;4144827;28;20635;-76
2023/08/13 05:47:23;;;;;;;7.13;6.40;;;;;;;21.25;100.00;98508.09;4152149;28;20674;-75
2023/08/13 05:49:27;;;;;;;7.90;5.60;;;;;;;21.28;100.00;98501.44;4134816;28;20692;-76
2023/08/13 05:51:30;;;;;;;7.23;6.40;;;;;;;21.29;100.00;98500.47;4143045;28;20628;-75
2023/08/13 05:53:33;;;;;;;7.43;6.10;;;;;;;21.31;100.00;98510.94;4144583;28;20713;-76
2023/08/13 05:55:36;;;;;;;7.40;6.40;;;;;;;21.31;100.00;98502.97;4144553;28;21071;-75
2023/08/13 05:57:39;;;;;;;7.80;6.07;;;;;;;21.31;100.00;98505.63;4136498;28;20715;-77
2023/08/13 05:59:43;;;;;;;7.30;5.77;;;;;;;21.30;100.00;98509.25;4137556;28;20659;-76
2023/08/13 06:01:46;;;;;;;6.27;5.40;;;;;;;21.32;100.00;98510.78;4144400;28;20641;-75
2023/08/13 06:03:50;;;;;;;6.73;6.03;;;;;;;21.34;100.00;98524.69;4151313;28;21364;-74
2023/08/13 06:05:53;;;;;;;7.03;5.73;;;;;;;21.36;100.00;98512.13;4128356;28;20647;-76
2023/08/13 06:07:56;;;;;;;6.20;5.60;;;;;;;21.39;100.00;98518.91;4136233;28;20668;-74
2023/08/13 06:09:59;;;;;;;5.97;5.17;;;;;;;21.41;100.00;98509.81;4123679;28;21217;-75
2023/08/13 06:12:03;;;;;;;6.00;5.40;;;;;;;21.41;100.00;98512.47;4151291;28;20638;-74
2023/08/13 06:14:06;;;;;;;7.00;6.27;;;;;;;21.45;100.00;98521.78;4137950;28;20741;-75
2023/08/13 06:16:09;;;;;;;6.50;5.83;;;;;;;21.49;100.00;98511.69;4153394;28;20639;-76
2023/08/13 06:18:12;;;;;;;8.10;5.80;;;;;;;21.53;100.00;98515.66;4156927;28;20663;-74
2023/08/13 06:20:17;;;;;;;6.20;5.27;;;;;;;21.56;100.00;98518.84;4144997;28;20706;-75
2023/08/13 06:22:20;;;;;;;6.60;5.43;;;;;;;21.58;100.00;98514.19;4152760;28;20669;-75
2023/08/13 06:24:23;;;;;;;6.47;5.77;;;;;;;21.63;100.00;98511.06;4153044;28;20621;-76
2023/08/13 06:26:26;;;;;;;5.77;5.17;;;;;;;21.68;100.00;98512.25;4153984;28;20659;-75
2023/08/13 06:28:29;;;;;;;8.13;6.13;;;;;;;21.71;100.00;98514.56;4153364;28;21054;-74
2023/08/13 06:30:32;;;;;;;6.83;6.00;;;;;;;21.75;100.00;98515.06;4150019;28;20646;-75
2023/08/13 06:32:36;;;;;;;6.77;6.07;;;;;;;21.79;100.00;98511.91;4152811;28;20629;-75
2023/08/13 06:34:39;;;;;;;7.87;6.30;;;;;;;21.81;100.00;98501.94;4155497;28;20620;-75
2023/08/13 06:36:42;;;;;;;6.47;5.77;;;;;;;21.82;100.00;98514.25;4125773;28;20688;-74
2023/08/13 06:38:45;;;;;;;6.30;5.70;;;;;;;21.84;100.00;98510.41;4153277;28;20699;-74
2023/08/13 06:40:48;;;;;;;7.00;6.30;;;;;;;21.88;100.00;98502.97;4152422;28;20668;-83
2023/08/13 06:42:52;;;;;;;7.13;5.67;;;;;;;21.92;100.00;98509.59;4143742;28;20643;-82
2023/08/13 06:44:55;;;;;;;7.10;5.40;;;;;;;21.92;100.00;98506.94;4122191;28;20649;-83
2023/08/13 06:46:58;;;;;;;7.00;6.30;;;;;;;21.91;100.00;98505.28;4137285;28;21297;-82
2023/08/13 06:49:01;;;;;;;6.30;5.70;;;;;;;21.91;100.00;98516.75;4145693;28;20704;-84
2023/08/13 06:51:05;;;;;;;7.07;6.30;;;;;;;21.94;100.00;98507.63;4141611;28;21181;-80
2023/08/13 06:53:09;;;;;;;7.23;5.70;;;;;;;21.97;100.00;98513.44;4155103;28;20625;-83
2023/08/13 06:55:12;;;;;;;8.60;6.53;;;;;;;22.02;100.00;98510.28;4139697;28;20640;-84
2023/08/13 06:57:15;;;;;;;7.20;6.13;;;;;;;22.05;100.00;98509.94;4154641;28;21174;-83
2023/08/13 06:59:18;;;;;;;6.43;5.73;;;;;;;22.05;100.00;98508.13;4146233;28;20704;-83
2023/08/13 07:01:21;;;;;;;6.53;5.93;;;;;;;22.09;100.00;98512.13;4149421;28;20732;-83
2023/08/13 07:03:24;;;;;;;7.50;6.13;;;;;;;22.13;100.00;98520.56;4136013;28;20645;-83
2023/08/13 07:05:27;;;;;;;8.43;6.60;;;;;;;22.15;100.00;98522.09;4149920;28;20650;-84
2023/08/13 07:07:30;;;;;;;6.20;5.60;;;;;;;22.19;100.00;98533.22;4139548;28;20638;-83
2023/08/13 07:09:34;;;;;;;7.33;6.63;;;;;;;22.20;100.00;98518.94;4150867;28;20632;-82
2023/08/13 07:11:38;;;;;;;6.40;5.67;;;;;;;22.23;100.00;98541.53;4147009;28;21116;-83
2023/08/13 07:13:41;;;;;;;6.17;5.57;;;;;;;22.24;100.00;98540.56;4142106;28;20631;-83
2023/08/13 07:15:44;;;;;;;6.50;5.40;;;;;;;22.25;100.00;98541.38;4155467;28;21157;-83
2023/08/13 07:17:47;;;;;;;7.00;6.30;;;;;;;22.25;100.00;98539.56;4158593;28;20640;-83
2023/08/13 07:19:51;;;;;;;7.43;6.73;;;;;;;22.25;100.00;98544.03;4142461;28;21225;-84
2023/08/13 07:21:54;;;;;;;7.00;6.17;;;;;;;22.22;100.00;98538.22;4151656;28;20643;-82
2023/08/13 07:23:57;;;;;;;7.00;6.23;;;;;;;22.17;100.00;98535.22;4145361;28;20740;-83
2023/08/13 07:26:02;;;;;;;6.97;6.03;;;;;;;22.12;100.00;98525.06;4162266;28;20724;-83
2023/08/13 07:28:06;;;;;;;7.17;6.47;;;;;;;22.06;100.00;98532.88;4155561;28;20644;-83
2023/08/13 07:30:10;;;;;;;7.70;6.90;;;;;;;22.03;100.00;98536.69;4121570;28;20709;-84
2023/08/13 07:32:14;;;;;;;8.33;6.07;;;;;;;22.03;100.00;98535.88;4157505;28;20635;-82
2023/08/13 07:34:18;;;;;;;7.27;6.57;;;;;;;22.03;100.00;98539.34;4141456;28;20648;-84
2023/08/13 07:36:21;;;;;;;6.23;5.60;;;;;;;22.06;100.00;98538.19;4159538;28;20633;-84
2023/08/13 07:38:23;;;;;;;8.50;6.50;;;;;;;22.05;100.00;98534.69;4146000;28;20704;-81
2023/08/13 07:40:26;;;;;;;6.70;6.00;;;;;;;22.05;100.00;98540.00;4158979;28;20643;-82
2023/08/13 07:42:30;;;;;;;7.60;6.83;;;;;;;22.09;100.00;98540.53;4129134;28;20633;-83
2023/08/13 07:44:34;;;;;;;6.40;5.80;;;;;;;22.15;100.00;98538.03;4142299;28;20728;-84
2023/08/13 07:46:37;;;;;;;6.37;5.77;;;;;;;22.20;100.00;98537.53;4128046;28;20707;-84
2023/08/13 07:48:40;;;;;;;6.60;5.90;;;;;;;22.25;100.00;98538.72;4145731;28;20625;-83
2023/08/13 07:50:43;;;;;;;6.60;6.00;;;;;;;22.30;100.00;98534.56;4159383;28;20667;-74
2023/08/13 07:52:46;;;;;;;7.07;6.37;;;;;;;22.35;100.00;98539.38;4156380;28;20658;-75
2023/08/13 07:54:49;;;;;;;6.90;6.20;;;;;;;22.38;100.00;98542.53;4157358;28;20640;-75
2023/08/13 07:56:53;;;;;;;6.93;6.10;;;;;;;22.42;100.00;98543.06;4152531;28;20634;-75
2023/08/13 07:58:57;;;;;;;6.87;6.20;;;;;;;22.46;100.00;98544.38;4142580;28;20646;-75
2023/08/13 08:01:00;;;;;;;7.30;6.50;;;;;;;22.50;100.00;98543.03;4155211;28;21079;-74
2023/08/13 08:03:04;;;;;;;7.90;6.17;;;;;;;22.56;100.00;98543.19;4156716;28;21080;-76
2023/08/13 08:05:07;;;;;;;8.33;5.87;;;;;;;22.61;100.00;98540.03;4156425;28;20668;-76
2023/08/13 08:07:10;;;;;;;6.00;5.40;;;;;;;22.67;100.00;98526.88;4124304;28;20630;-75
2023/08/13 08:09:13;;;;;;;6.23;5.70;;;;;;;22.77;100.00;98532.88;4156027;28;20646;-75
2023/08/13 08:11:16;;;;;;;5.60;5.10;;;;;;;22.85;100.00;98533.69;4152322;28;20632;-75
2023/08/13 08:13:19;;;;;;;5.70;5.20;;;;;;;22.95;100.00;98534.34;4153771;28;20648;-75
2023/08/13 08:15:23;;;;;;;5.50;5.00;;;;;;;23.03;100.00;98536.97;4144528;28;20638;-75
2023/08/13 08:17:26;;;;;;;5.20;4.80;;;;;;;23.12;100.00;98529.81;4141408;28;20670;-76
2023/08/13 08:19:29;;;;;;;5.10;4.60;;;;;;;23.21;100.00;98530.44;4123087;28;20664;-76
2023/08/13 08:21:32;;;;;;;5.50;5.00;;;;;;;23.32;100.00;98531.91;4137917;28;20728;-75
2023/08/13 08:23:35;;;;;;;5.50;5.00;;;;;;;23.47;100.00;98525.66;4133514;28;20634;-74
2023/08/13 08:25:38;;;;;;;4.90;4.40;;;;;;;23.60;100.00;98525.09;4154509;28;20747;-75
2023/08/13 08:27:42;;;;;;;5.17;4.67;;;;;;;23.65;100.00;98523.63;4152847;28;20664;-76
2023/08/13 08:29:45;;;;;;;6.30;3.90;;;;;;;23.70;100.00;98523.91;4138431;28;20704;-74
2023/08/13 08:31:49;;;;;;;4.00;3.50;;;;;;;23.68;100.00;98520.59;4143657;28;20651;-77
2023/08/13 08:33:52;;;;;;;5.43;4.20;;;;;;;23.66;100.00;98514.59;4152370;28;21073;-75
2023/08/13 08:35:56;;;;;;;5.90;4.40;;;;;;;23.73;100.00;98521.72;4157236;28;20640;-75
2023/08/13 08:37:59;;;;;;;6.13;4.10;;;;;;;23.86;100.00;98518.47;4150713;28;20635;-75
2023/08/13 08:40:02;;;;;;;4.63;4.00;;;;;;;23.89;100.00;98523.44;4136631;28;20669;-74
2023/08/13 08:42:07;;;;;;;4.30;3.37;;;;;;;23.86;100.00;98515.78;4155636;28;21211;-75
2023/08/13 08:44:14;;;;;;;3.90;3.50;;;;;;;23.82;100.00;98509.19;4135332;28;20729;-75
2023/08/13 08:46:18;;;;;;;5.27;4.53;;;;;;;23.83;100.00;98497.50;4152251;28;20607;-75
2023/08/13 08:48:23;;;;;;;3.77;3.37;;;;;;;23.82;100.00;98499.34;4151638;28;20646;-75
2023/08/13 08:50:26;;;;;;;5.03;3.87;;;;;;;23.87;100.00;98498.81;4155784;28;20631;-77
2023/08/13 08:52:31;;;;;;;4.40;4.00;;;;;;;23.96;100.00;98500.41;4134468;28;21215;-75
2023/08/13 08:54:39;;;;;;;5.17;4.33;;;;;;;24.11;100.00;98509.31;4152414;28;21088;-76
2023/08/13 08:56:42;;;;;;;5.90;4.37;;;;;;;24.32;100.00;98505.81;4150299;28;20631;-75
2023/08/13 08:58:45;;;;;;;5.60;5.10;;;;;;;24.57;100.00;98499.25;4151252;28;20646;-75
2023/08/13 09:00:49;;;;;;;4.93;4.50;;;;;;;24.71;100.00;98503.78;4140541;28;22075;-82
2023/08/13 09:02:52;;;;;;;4.23;3.60;;;;;;;24.79;100.00;98501.88;4139091;28;20640;-82
2023/08/13 09:04:57;;;;;;;4.90;4.30;;;;;;;24.88;100.00;98494.56;4135978;28;20666;-83
2023/08/13 09:07:00;;;;;;;6.80;4.63;;;;;;;24.89;100.00;98491.72;4148834;28;21019;-83
2023/08/13 09:09:03;;;;;;;4.37;3.90;;;;;;;24.89;100.00;98485.56;4142555;28;21210;-82
2023/08/13 09:11:06;;;;;;;4.47;4.07;;;;;;;24.86;100.00;98493.94;4131062;28;20640;-84
2023/08/13 09:13:10;;;;;;;4.20;3.80;;;;;;;24.80;100.00;98494.66;4129072;28;20636;-83
2023/08/13 09:15:14;;;;;;;4.30;3.90;;;;;;;24.73;100.00;98483.91;4152680;28;20628;-84
2023/08/13 09:17:17;;;;;;;4.13;3.73;;;;;;;24.73;100.00;98480.38;4143554;28;20644;-83
2023/08/13 09:19:22;;;;;;;4.17;3.50;;;;;;;24.73;100.00;98486.56;4151662;28;21066;-84
2023/08/13 09:21:28;;;;;;;3.63;3.30;;;;;;;24.79;100.00;98485.00;4155285;28;20626;-80
2023/08/13 09:23:38;;;;;;;3.90;3.33;;;;;;;24.79;100.00;98479.66;4133179;28;20641;-84
2023/08/13 09:25:41;;;;;;;4.03;3.63;;;;;;;24.88;100.00;98475.88;4150907;28;20631;-83
2023/08/13 09:27:45;;;;;;;3.60;3.30;;;;;;;24.92;100.00;98474.53;4160607;28;20631;-83
2023/08/13 09:29:52;;;;;;;3.97;3.50;;;;;;;24.91;100.00;98472.84;4129771;28;20619;-83
2023/08/13 09:31:58;;;;;;;4.17;3.33;;;;;;;24.96;100.00;98481.13;4149809;28;20707;-83
2023/08/13 09:34:02;;;;;;;3.77;3.10;;;;;;;25.01;100.00;98473.44;4143745;28;20718;-82
2023/08/13 09:36:06;;;;;;;4.77;3.60;;;;;;;25.09;100.00;98479.50;4155393;28;20623;-83